createdAt,value
2022-08-18T00:03:53.696Z,16.6
2022-08-18T00:10:06.887Z,16.5
2022-08-18T00:15:17.507Z,16.5
2022-08-18T00:21:15.286Z,16.6
2022-08-18T00:26:54.646Z,16.5
2022-08-18T00:32:38.748Z,16.4
2022-08-18T00:38:23.398Z,16.4
2022-08-18T00:44:15.404Z,16.3
2022-08-18T00:50:20.659Z,16.2
2022-08-18T00:56:11.562Z,16.1
2022-08-18T01:01:48.959Z,16.1
2022-08-18T01:07:27.112Z,16.1
2022-08-18T01:13:41.676Z,16
2022-08-18T01:19:31.717Z,16
2022-08-18T01:25:07.600Z,16
2022-08-18T01:30:38.837Z,16
2022-08-18T01:36:36.971Z,16
2022-08-18T01:44:19.472Z,15.9
2022-08-18T01:50:16.036Z,15.9
2022-08-18T01:55:55.502Z,15.9
2022-08-18T02:01:24.711Z,15.8
2022-08-18T02:08:11.746Z,15.7
2022-08-18T02:14:00.291Z,15.6
2022-08-18T02:19:59.857Z,15.5
2022-08-18T02:25:24.293Z,15.4
2022-08-18T02:31:05.356Z,15.3
2022-08-18T02:36:43.896Z,15.2
2022-08-18T02:42:25.677Z,15.1
2022-08-18T02:47:41.504Z,15.1
2022-08-18T02:53:28.113Z,14.9
2022-08-18T02:59:16.305Z,14.9
2022-08-18T03:04:58.035Z,14.8
2022-08-18T03:11:07.104Z,14.8
2022-08-18T03:16:54.629Z,14.7
2022-08-18T03:23:05.696Z,14.7
2022-08-18T03:29:09.927Z,14.6
2022-08-18T03:34:45.757Z,14.6
2022-08-18T03:40:23.113Z,14.6
2022-08-18T03:47:04.274Z,14.6
2022-08-18T03:52:41.740Z,14.6
2022-08-18T03:58:19.580Z,14.7
2022-08-18T04:04:02.683Z,14.8
2022-08-18T04:09:55.333Z,14.8
2022-08-18T04:15:42.556Z,14.9
2022-08-18T04:21:55.368Z,15.1
2022-08-18T04:27:47.627Z,15.3
2022-08-18T04:33:29.379Z,15.5
2022-08-18T04:38:56.348Z,15.8
2022-08-18T04:44:44.303Z,16.1
2022-08-18T04:50:24.479Z,16.4
2022-08-18T04:57:23.206Z,16.7
2022-08-18T05:03:00.422Z,17.3
2022-08-18T05:08:37.236Z,18.1
2022-08-18T05:14:16.045Z,19.1
2022-08-18T05:20:39.976Z,20.8
2022-08-18T05:26:38.983Z,23.2
2022-08-18T05:33:05.047Z,25.8
2022-08-18T05:38:47.819Z,28.6
2022-08-18T05:44:27.227Z,31.1
2022-08-18T05:50:09.507Z,33.6
2022-08-18T05:55:53.863Z,36.1
2022-08-18T06:01:33.962Z,38.5
2022-08-18T06:07:12.631Z,41
2022-08-18T06:13:11.765Z,43.9
2022-08-18T06:18:39.360Z,46.5
2022-08-18T06:24:24.323Z,49.3
2022-08-18T06:30:01.587Z,51.8
2022-08-18T06:35:49.904Z,54.7
2022-08-18T06:42:00.447Z,47.6
2022-08-18T06:47:54.421Z,50.2
2022-08-18T06:54:01.419Z,55.9
2022-08-18T06:59:51.899Z,49.6
2022-08-18T07:05:32.782Z,51.8
2022-08-18T07:11:21.434Z,55.6
2022-08-18T07:17:43.012Z,50.6
2022-08-18T07:23:35.107Z,55.1
2022-08-18T07:35:15.028Z,53.1
2022-08-18T07:41:19.512Z,53.3
2022-08-18T07:47:25.511Z,54.4
2022-08-18T07:55:43.630Z,55.9
2022-08-18T08:01:58.801Z,57
2022-08-18T08:08:21.424Z,58.2
2022-08-18T08:14:48.610Z,58.6
2022-08-18T08:21:10.638Z,59.4
2022-08-18T08:27:27.469Z,60.4
2022-08-18T08:33:21.918Z,61
2022-08-18T08:40:06.926Z,61.4
2022-08-18T08:46:10.574Z,61.8
2022-08-18T08:52:03.688Z,63
2022-08-18T08:57:47.037Z,63.3
2022-08-18T09:03:50.002Z,64.1
2022-08-18T09:09:42.945Z,64.2
2022-08-18T09:15:19.427Z,63.8
2022-08-18T09:21:06.407Z,64.6
2022-08-18T09:26:43.673Z,64.3
2022-08-18T13:06:27.464Z,64.5
2022-08-18T13:14:10.215Z,65.8
2022-08-18T13:20:54.910Z,69.6
2022-08-18T13:27:33.004Z,62.7
2022-08-18T13:35:02.457Z,59.1
2022-08-18T13:41:08.862Z,57.7
2022-08-18T13:47:47.515Z,60.7
2022-08-18T13:53:57.954Z,63
2022-08-18T14:00:27.879Z,64.4
2022-08-18T14:07:53.024Z,64.6
2022-08-18T14:14:19.391Z,64.3
2022-08-18T14:19:48.171Z,63.1
2022-08-18T14:26:02.512Z,60.7
2022-08-18T14:32:36.249Z,59.5
2022-08-18T14:39:50.320Z,58.8
2022-08-18T14:47:12.023Z,57.4
2022-08-18T14:53:29.171Z,56.1
2022-08-18T14:59:37.652Z,53.1
2022-08-18T15:06:22.820Z,50.2
2022-08-18T15:12:48.454Z,47.9
2022-08-18T15:20:16.690Z,46.1
2022-08-18T15:26:25.428Z,44.7
2022-08-18T15:33:41.980Z,43.1
2022-08-18T15:40:21.659Z,41.6
2022-08-18T15:46:53.624Z,40
2022-08-18T15:53:31.161Z,38.8
2022-08-18T16:00:13.868Z,37.8
2022-08-18T16:06:50.113Z,37.1
2022-08-18T16:13:03.710Z,36.3
2022-08-18T16:19:08.818Z,35.8
2022-08-18T16:24:54.622Z,35.2
2022-08-18T16:30:36.167Z,34.7
2022-08-18T16:36:19.312Z,34.1
2022-08-18T16:42:02.404Z,33.5
2022-08-18T16:47:41.648Z,32.9
2022-08-18T16:53:26.842Z,32.4
2022-08-18T16:59:44.134Z,31.8
2022-08-18T17:05:48.980Z,31.3
2022-08-18T17:11:48.254Z,30.8
2022-08-18T17:17:29.388Z,30.3
2022-08-18T17:23:11.071Z,29.8
2022-08-18T17:29:45.988Z,29.2
2022-08-18T17:35:28.606Z,28.8
2022-08-18T17:41:07.541Z,28.3
2022-08-18T17:47:06.993Z,27.9
2022-08-18T17:53:11.758Z,27.5
2022-08-18T17:58:54.667Z,27.1
2022-08-18T18:05:23.039Z,26.8
2022-08-18T18:11:34.004Z,26.4
2022-08-18T18:17:14.727Z,26.2
2022-08-18T18:23:29.570Z,25.9
2022-08-18T18:29:22.438Z,25.6
2022-08-18T18:34:46.606Z,25.4
2022-08-18T18:40:29.510Z,25.3
2022-08-18T18:46:18.502Z,25.1
2022-08-18T18:52:45.614Z,24.9
2022-08-18T18:58:25.114Z,24.8
2022-08-18T19:04:35.196Z,24.7
2022-08-18T19:10:21.307Z,24.6
2022-08-18T19:16:41.146Z,24.4
2022-08-18T19:24:40.204Z,24.3
2022-08-18T19:30:57.359Z,24.1
2022-08-18T19:37:48.360Z,23.9
2022-08-18T19:43:33.417Z,23.8
2022-08-18T19:49:20.328Z,23.6
2022-08-18T19:55:39.962Z,23.4
2022-08-18T20:01:38.663Z,23.4
2022-08-18T20:07:31.547Z,23.3
2022-08-18T20:13:26.952Z,23.1
2022-08-18T20:19:33.655Z,23
2022-08-18T20:24:59.896Z,22.8
2022-08-18T20:30:44.069Z,22.6
2022-08-18T20:36:21.252Z,22.4
2022-08-18T20:42:03.770Z,22.3
2022-08-18T20:48:06.866Z,22.1
2022-08-18T20:54:13.097Z,21.9
2022-08-18T21:00:23.942Z,21.8
2022-08-18T21:06:11.290Z,21.6
2022-08-18T21:12:14.662Z,21.3
2022-08-18T21:23:46.218Z,20.9
2022-08-18T21:29:22.361Z,20.8
2022-08-18T21:35:29.730Z,20.6
2022-08-18T21:41:25.347Z,20.4
2022-08-18T21:46:51.329Z,20.2
2022-08-18T21:52:16.543Z,20
2022-08-18T21:57:54.789Z,19.9
2022-08-18T22:03:39.183Z,19.8
2022-08-18T22:09:45.799Z,19.6
2022-08-18T22:16:22.198Z,19.5
2022-08-18T22:21:47.637Z,19.4
2022-08-18T22:27:11.478Z,19.3
2022-08-18T22:32:54.506Z,19.2
2022-08-18T22:38:31.511Z,19.1
2022-08-18T22:43:56.706Z,19.1
2022-08-18T22:49:44.143Z,19
2022-08-18T22:55:24.866Z,18.9
2022-08-18T23:02:00.839Z,18.8
2022-08-18T23:07:13.210Z,18.8
2022-08-18T23:13:04.177Z,18.6
2022-08-18T23:18:34.765Z,18.5
2022-08-18T23:24:25.754Z,18.4
2022-08-18T23:30:09.524Z,18.3
2022-08-18T23:35:57.593Z,18.1
2022-08-18T23:41:43.313Z,18.1
2022-08-18T23:47:21.407Z,17.9
2022-08-18T23:53:06.874Z,17.8
2022-08-18T23:58:53.948Z,17.8
